Time;durP1;ratioP1;P1;durP2;ratioP2;P2;SDS_P1;SDS_P2;PMS_P1;PMS_P2;Temp;Humidity;BMP_temperature;BMP_pressure;BME280_temperature;BME280_humidity;BME280_pressure;Samples;Min_cycle;Max_cycle;Signal;HPM_P1;HPM_P2
2023/12/12 00:00:29;;;;;;;1.60;1.20;;;11.30;99.90;;;;;;7382987;19;20142;-75
2023/12/12 00:02:56;;;;;;;1.20;0.90;;;11.30;99.90;;;;;;7374805;19;20148;-76
2023/12/12 00:05:22;;;;;;;4.43;2.23;;;11.30;99.90;;;;;;7381335;19;20526;-76
2023/12/12 00:07:47;;;;;;;4.63;2.63;;;11.10;99.90;;;;;;7385954;19;20134;-75
2023/12/12 00:10:13;;;;;;;7.27;3.20;;;11.30;99.90;;;;;;7391846;19;20139;-75
2023/12/12 00:12:39;;;;;;;3.97;2.10;;;11.20;99.90;;;;;;7388291;19;20156;-75
2023/12/12 00:15:07;;;;;;;1.53;1.03;;;11.20;99.90;;;;;;7389669;19;20154;-75
2023/12/12 00:17:32;;;;;;;2.40;0.90;;;11.10;99.90;;;;;;7391820;19;20138;-75
2023/12/12 00:19:58;;;;;;;0.60;0.60;;;11.10;99.90;;;;;;7390794;19;20607;-76
2023/12/12 00:22:24;;;;;;;2.77;0.97;;;11.30;99.90;;;;;;7392596;19;20165;-75
2023/12/12 00:24:50;;;;;;;1.30;0.63;;;11.20;99.90;;;;;;7390587;19;20134;-76
2023/12/12 00:27:15;;;;;;;0.90;0.70;;;10.90;99.90;;;;;;7389340;19;20150;-75
2023/12/12 00:29:41;;;;;;;2.07;0.77;;;10.90;99.90;;;;;;7381322;19;20178;-74
2023/12/12 00:32:07;;;;;;;2.00;0.73;;;10.90;99.90;;;;;;7389599;19;20155;-76
2023/12/12 00:34:38;;;;;;;1.40;1.00;;;11.00;99.90;;;;;;7387144;19;20130;-75
2023/12/12 00:37:05;;;;;;;0.60;0.60;;;11.10;99.90;;;;;;7388564;19;20583;-76
2023/12/12 00:39:30;;;;;;;3.33;0.90;;;11.10;99.90;;;;;;7380811;19;20227;-76
2023/12/12 00:41:56;;;;;;;0.50;0.50;;;11.10;99.90;;;;;;7389334;19;20138;-76
2023/12/12 00:44:22;;;;;;;2.67;0.70;;;11.10;99.90;;;;;;7387405;19;20504;-76
2023/12/12 00:46:48;;;;;;;0.70;0.70;;;11.10;99.90;;;;;;7383393;19;20234;-77
2023/12/12 00:49:13;;;;;;;0.73;0.50;;;11.20;99.90;;;;;;7387656;19;20155;-76
2023/12/12 00:51:39;;;;;;;2.47;1.43;;;11.10;99.90;;;;;;7389070;19;20135;-76
2023/12/12 00:54:05;;;;;;;1.50;0.73;;;11.20;99.90;;;;;;7384575;19;20127;-77
2023/12/12 00:56:31;;;;;;;2.53;0.70;;;11.20;99.90;;;;;;7388281;19;20139;-77
2023/12/12 00:58:56;;;;;;;1.57;0.80;;;11.10;99.90;;;;;;7390385;19;20805;-77
2023/12/12 01:01:22;;;;;;;0.50;0.50;;;11.20;99.90;;;;;;7385121;19;20165;-76
2023/12/12 01:03:48;;;;;;;0.87;0.83;;;11.20;99.90;;;;;;7389762;19;20624;-76
2023/12/12 01:06:26;;;;;;;0.50;0.50;;;11.20;99.90;;;;;;7385945;19;20143;-76
2023/12/12 01:08:52;;;;;;;0.47;0.47;;;11.20;99.90;;;;;;7385447;19;20138;-76
2023/12/12 01:11:18;;;;;;;2.00;1.70;;;11.20;99.90;;;;;;7387324;19;20144;-76
2023/12/12 01:13:45;;;;;;;0.70;0.43;;;11.00;99.90;;;;;;7389446;19;20210;-76
2023/12/12 01:16:12;;;;;;;1.47;0.70;;;11.30;99.90;;;;;;7384579;19;20592;-76
2023/12/12 01:18:38;;;;;;;0.60;0.57;;;11.10;99.90;;;;;;7388868;19;20146;-74
2023/12/12 01:21:04;;;;;;;0.50;0.50;;;11.10;99.90;;;;;;7385484;19;20678;-76
2023/12/12 01:23:55;;;;;;;1.80;0.83;;;11.10;99.90;;;;;;7382181;19;20135;-76
2023/12/12 01:26:22;;;;;;;0.53;0.53;;;11.10;99.90;;;;;;7388254;19;20122;-76
2023/12/12 01:28:49;;;;;;;2.77;1.07;;;11.20;99.90;;;;;;7389450;19;20475;-75
2023/12/12 01:31:16;;;;;;;0.47;0.47;;;11.20;99.90;;;;;;7389551;19;20137;-76
2023/12/12 01:33:43;;;;;;;0.57;0.47;;;11.20;99.90;;;;;;7393593;19;20149;-76
2023/12/12 01:36:09;;;;;;;1.33;0.73;;;11.30;99.90;;;;;;7386211;19;20133;-76
2023/12/12 01:38:35;;;;;;;0.30;0.30;;;11.40;99.90;;;;;;7387702;19;20140;-75
2023/12/12 01:41:01;;;;;;;0.37;0.30;;;11.30;99.90;;;;;;7385117;19;20131;-76
2023/12/12 01:43:29;;;;;;;1.33;0.90;;;11.30;99.90;;;;;;7393376;19;20139;-76
2023/12/12 01:45:59;;;;;;;3.37;1.17;;;11.30;99.90;;;;;;7387454;19;20492;-75
2023/12/12 01:48:26;;;;;;;0.70;0.50;;;11.30;99.90;;;;;;7390093;19;20591;-75
2023/12/12 01:50:53;;;;;;;0.47;0.47;;;11.20;99.90;;;;;;7392095;19;20151;-75
2023/12/12 01:53:53;;;;;;;1.20;0.70;;;11.30;99.90;;;;;;7389577;19;20146;-75
2023/12/12 01:56:19;;;;;;;0.70;0.40;;;11.20;99.90;;;;;;7384575;19;20146;-75
2023/12/12 01:58:49;;;;;;;0.67;0.67;;;11.20;99.90;;;;;;7389244;19;20131;-75
2023/12/12 02:01:15;;;;;;;0.57;0.57;;;11.20;99.90;;;;;;7387638;19;20156;-75
2023/12/12 02:03:42;;;;;;;1.50;0.50;;;11.30;99.90;;;;;;7382779;19;20552;-76
2023/12/12 02:06:10;;;;;;;0.47;0.47;;;11.30;99.90;;;;;;7378994;19;20214;-75
2023/12/12 02:08:37;;;;;;;0.50;0.50;;;11.30;99.90;;;;;;7382308;19;20139;-75
2023/12/12 02:11:03;;;;;;;0.53;0.53;;;11.20;99.90;;;;;;7385744;19;20210;-76
2023/12/12 02:13:29;;;;;;;0.30;0.30;;;11.00;99.90;;;;;;7386294;19;20194;-75
2023/12/12 02:15:55;;;;;;;0.67;0.60;;;11.10;99.90;;;;;;7388228;19;20130;-75
2023/12/12 02:18:21;;;;;;;0.97;0.70;;;11.10;99.90;;;;;;7386750;19;20135;-75
2023/12/12 02:20:47;;;;;;;0.93;0.60;;;11.00;99.90;;;;;;7383647;19;20173;-76
2023/12/12 02:23:12;;;;;;;1.17;0.40;;;11.00;99.90;;;;;;7386706;19;20176;-76
2023/12/12 02:25:38;;;;;;;0.97;0.50;;;11.10;99.90;;;;;;7385053;19;20142;-76
2023/12/12 02:28:07;;;;;;;0.53;0.50;;;11.20;99.90;;;;;;7381613;19;20150;-76
2023/12/12 02:30:35;;;;;;;1.03;1.00;;;11.20;99.90;;;;;;7379875;19;20130;-76
2023/12/12 02:33:02;;;;;;;1.20;0.80;;;11.10;99.90;;;;;;7383621;19;20150;-76
2023/12/12 02:35:29;;;;;;;0.40;0.40;;;11.00;99.90;;;;;;7383197;19;20158;-76
2023/12/12 02:37:55;;;;;;;1.40;0.80;;;10.90;99.90;;;;;;7386555;19;20155;-75
2023/12/12 02:40:20;;;;;;;1.10;0.70;;;11.00;99.90;;;;;;7384562;19;20134;-76
2023/12/12 02:42:46;;;;;;;0.50;0.50;;;11.10;99.90;;;;;;7376549;19;20142;-76
2023/12/12 02:45:12;;;;;;;0.67;0.40;;;11.10;99.90;;;;;;7386139;19;20157;-76
2023/12/12 02:47:38;;;;;;;0.40;0.40;;;11.00;99.90;;;;;;7381752;19;20147;-76
2023/12/12 02:50:07;;;;;;;0.40;0.40;;;11.00;99.90;;;;;;7380985;19;20178;-75
2023/12/12 02:52:33;;;;;;;0.43;0.43;;;10.90;99.90;;;;;;7378951;19;20130;-74
2023/12/12 02:54:58;;;;;;;0.40;0.40;;;10.90;99.90;;;;;;7381185;19;20133;-76
2023/12/12 02:57:24;;;;;;;0.50;0.50;;;10.80;99.90;;;;;;7385036;19;20778;-75
2023/12/12 02:59:50;;;;;;;1.07;0.40;;;10.80;99.90;;;;;;7384808;19;20141;-76
2023/12/12 03:02:16;;;;;;;1.10;0.90;;;10.90;99.90;;;;;;7383197;19;20167;-75
2023/12/12 03:04:45;;;;;;;1.17;0.47;;;10.90;99.90;;;;;;7388790;19;20181;-75
2023/12/12 03:07:12;;;;;;;0.50;0.40;;;11.00;99.90;;;;;;7381942;19;20126;-75
2023/12/12 03:09:38;;;;;;;1.07;0.63;;;11.00;99.90;;;;;;7385970;19;20180;-76
2023/12/12 03:12:05;;;;;;;0.40;0.40;;;11.00;99.90;;;;;;7388753;19;20142;-76
2023/12/12 03:14:31;;;;;;;0.60;0.57;;;11.00;99.90;;;;;;7382563;19;20147;-77
2023/12/12 03:16:57;;;;;;;0.80;0.50;;;11.00;99.90;;;;;;7385662;19;20131;-77
2023/12/12 03:19:24;;;;;;;0.80;0.57;;;11.00;99.90;;;;;;7381265;19;20139;-77
2023/12/12 03:21:50;;;;;;;0.47;0.40;;;10.90;99.90;;;;;;7382735;19;20142;-76
2023/12/12 03:24:16;;;;;;;0.40;0.40;;;10.80;99.90;;;;;;7380495;19;20213;-76
2023/12/12 03:26:43;;;;;;;0.90;0.90;;;10.90;99.90;;;;;;7380640;19;20131;-76
2023/12/12 03:29:09;;;;;;;1.13;0.63;;;10.80;99.90;;;;;;7384704;19;20591;-75
2023/12/12 03:31:34;;;;;;;0.43;0.40;;;10.80;99.90;;;;;;7380595;19;20155;-76
2023/12/12 03:34:00;;;;;;;0.77;0.67;;;10.90;99.90;;;;;;7385524;19;20158;-76
2023/12/12 03:36:26;;;;;;;2.30;0.50;;;10.90;99.90;;;;;;7379336;19;20130;-75
2023/12/12 03:38:52;;;;;;;0.50;0.50;;;10.80;99.90;;;;;;7381265;19;20150;-76
2023/12/12 03:41:18;;;;;;;1.80;0.70;;;10.90;99.90;;;;;;7389693;19;20151;-76
2023/12/12 03:43:43;;;;;;;0.40;0.40;;;10.90;99.90;;;;;;7393925;19;20136;-76
2023/12/12 03:46:13;;;;;;;0.63;0.50;;;10.90;99.90;;;;;;7391934;19;20174;-76
2023/12/12 03:48:39;;;;;;;0.63;0.63;;;10.80;99.90;;;;;;7387729;19;20134;-76
2023/12/12 03:51:08;;;;;;;0.30;0.30;;;10.70;99.90;;;;;;7396364;19;20855;-75
2023/12/12 03:53:34;;;;;;;0.30;0.30;;;10.60;99.90;;;;;;7383331;19;20135;-76
2023/12/12 03:56:00;;;;;;;0.33;0.33;;;10.80;99.90;;;;;;7389150;19;20156;-76
2023/12/12 03:58:25;;;;;;;0.30;0.30;;;10.80;99.90;;;;;;7388456;19;20150;-75
2023/12/12 04:00:51;;;;;;;0.40;0.40;;;10.90;99.90;;;;;;7392346;19;20142;-76
2023/12/12 04:03:35;;;;;;;0.30;0.30;;;10.90;99.90;;;;;;7396181;19;20152;-75
2023/12/12 04:06:05;;;;;;;0.63;0.63;;;11.00;99.90;;;;;;7390067;19;20154;-75
2023/12/12 04:08:32;;;;;;;0.40;0.40;;;11.00;99.90;;;;;;7384982;19;20131;-75
2023/12/12 04:10:57;;;;;;;1.80;0.53;;;11.00;99.90;;;;;;7394389;19;20153;-76
2023/12/12 04:13:23;;;;;;;0.30;0.30;;;10.90;99.90;;;;;;7391658;19;20146;-76
2023/12/12 04:15:49;;;;;;;0.47;0.40;;;10.80;99.90;;;;;;7394901;19;20145;-76
2023/12/12 04:18:15;;;;;;;1.00;0.60;;;10.80;99.90;;;;;;7391088;19;20134;-75
2023/12/12 04:20:40;;;;;;;0.90;0.50;;;10.80;99.90;;;;;;7389274;19;20135;-75
2023/12/12 04:23:06;;;;;;;0.33;0.33;;;10.60;99.90;;;;;;7389460;19;20135;-75
2023/12/12 04:25:32;;;;;;;0.40;0.30;;;10.10;99.90;;;;;;7388069;19;20131;-76
2023/12/12 04:27:59;;;;;;;0.93;0.67;;;10.00;99.90;;;;;;7386180;19;20498;-75
2023/12/12 04:30:24;;;;;;;0.63;0.63;;;10.10;99.90;;;;;;7389957;19;20135;-76
2023/12/12 04:32:50;;;;;;;1.60;0.50;;;10.30;99.90;;;;;;7392973;19;20138;-76
2023/12/12 04:35:16;;;;;;;0.47;0.40;;;10.10;99.90;;;;;;7393535;19;20149;-76
2023/12/12 04:37:42;;;;;;;0.90;0.50;;;10.00;99.90;;;;;;7390000;19;20130;-75
2023/12/12 04:40:08;;;;;;;0.43;0.40;;;9.70;99.90;;;;;;7384559;19;21390;-75
2023/12/12 04:42:33;;;;;;;0.43;0.30;;;9.90;99.90;;;;;;7389737;19;20628;-75
2023/12/12 04:44:59;;;;;;;1.30;0.77;;;10.00;99.90;;;;;;7390613;19;20134;-76
2023/12/12 04:47:25;;;;;;;0.33;0.33;;;10.10;99.90;;;;;;7386171;19;20123;-76
2023/12/12 04:49:51;;;;;;;0.30;0.30;;;9.80;99.90;;;;;;7392097;19;20131;-76
2023/12/12 04:52:16;;;;;;;0.50;0.50;;;9.80;99.90;;;;;;7392610;19;20138;-76
2023/12/12 04:54:42;;;;;;;0.63;0.47;;;9.90;99.90;;;;;;7391997;19;20133;-76
2023/12/12 04:57:08;;;;;;;0.77;0.40;;;9.80;99.90;;;;;;7389508;19;20142;-77
2023/12/12 04:59:34;;;;;;;0.53;0.53;;;9.80;99.90;;;;;;7388180;19;20592;-76
2023/12/12 05:01:59;;;;;;;0.57;0.57;;;9.50;99.90;;;;;;7387862;19;20487;-77
2023/12/12 05:04:25;;;;;;;0.40;0.40;;;9.50;99.90;;;;;;7388341;19;20174;-75
2023/12/12 05:06:51;;;;;;;0.30;0.30;;;9.60;99.90;;;;;;7383537;19;20147;-76
2023/12/12 05:09:17;;;;;;;0.90;0.50;;;9.80;99.90;;;;;;7388328;19;20133;-76
2023/12/12 05:11:43;;;;;;;0.47;0.30;;;9.60;99.90;;;;;;7382979;19;20135;-76
2023/12/12 05:14:10;;;;;;;1.03;0.80;;;9.60;99.90;;;;;;7386103;19;20138;-76
2023/12/12 05:16:36;;;;;;;0.90;0.53;;;9.80;99.90;;;;;;7391039;19;20135;-76
2023/12/12 05:19:02;;;;;;;2.10;0.70;;;10.10;99.90;;;;;;7386972;19;20143;-76
2023/12/12 05:21:28;;;;;;;0.50;0.50;;;10.20;99.90;;;;;;7387568;19;20630;-76
2023/12/12 05:23:54;;;;;;;0.60;0.53;;;10.00;99.90;;;;;;7381730;19;20188;-76
2023/12/12 05:26:20;;;;;;;0.30;0.30;;;10.00;99.90;;;;;;7390328;19;20826;-76
2023/12/12 05:28:46;;;;;;;0.57;0.57;;;10.10;99.90;;;;;;7384709;19;20126;-75
2023/12/12 05:31:12;;;;;;;1.00;0.90;;;10.20;99.90;;;;;;7392215;19;20150;-77
2023/12/12 05:33:38;;;;;;;0.80;0.50;;;10.40;99.90;;;;;;7388158;19;20133;-76
2023/12/12 05:36:05;;;;;;;0.60;0.60;;;10.60;99.90;;;;;;7389774;19;20579;-76
2023/12/12 05:38:31;;;;;;;0.90;0.60;;;10.60;99.90;;;;;;7386126;19;20223;-76
2023/12/12 05:40:56;;;;;;;0.50;0.50;;;10.60;99.90;;;;;;7383875;19;20131;-75
2023/12/12 05:43:22;;;;;;;1.90;0.60;;;10.70;99.90;;;;;;7389859;19;20137;-76
2023/12/12 05:45:49;;;;;;;1.07;0.77;;;10.80;99.90;;;;;;7383569;19;20146;-76
2023/12/12 05:48:15;;;;;;;1.03;0.50;;;10.80;99.90;;;;;;7386329;19;20155;-77
2023/12/12 05:50:40;;;;;;;0.50;0.50;;;10.80;99.90;;;;;;7381772;19;20631;-76
2023/12/12 05:53:06;;;;;;;0.30;0.30;;;10.90;99.90;;;;;;7386673;19;20131;-76
2023/12/12 05:55:32;;;;;;;0.57;0.57;;;10.80;99.90;;;;;;7384360;19;20155;-76
2023/12/12 05:57:58;;;;;;;0.53;0.30;;;10.70;99.90;;;;;;7383185;19;20223;-76
2023/12/12 06:00:27;;;;;;;0.40;0.40;;;10.70;99.90;;;;;;7383255;19;20261;-77
2023/12/12 06:02:54;;;;;;;1.67;0.60;;;10.80;99.90;;;;;;7391028;19;20150;-76
2023/12/12 06:05:20;;;;;;;0.50;0.50;;;10.80;99.90;;;;;;7383084;19;20523;-77
2023/12/12 06:07:46;;;;;;;1.20;0.40;;;10.80;99.90;;;;;;7389103;19;21107;-76
2023/12/12 06:10:12;;;;;;;0.53;0.53;;;10.70;99.90;;;;;;7386129;19;20573;-76
2023/12/12 06:12:38;;;;;;;0.47;0.40;;;10.80;99.90;;;;;;7385624;19;20147;-79
2023/12/12 06:15:07;;;;;;;0.77;0.40;;;10.70;99.90;;;;;;7387119;19;20131;-76
2023/12/12 06:17:36;;;;;;;0.40;0.40;;;10.50;99.90;;;;;;7386969;19;20555;-76
2023/12/12 06:20:03;;;;;;;0.77;0.70;;;10.60;99.90;;;;;;7393068;19;20130;-77
2023/12/12 06:22:29;;;;;;;0.77;0.37;;;10.80;99.90;;;;;;7378971;19;20180;-76
2023/12/12 06:24:54;;;;;;;1.80;0.50;;;10.70;99.90;;;;;;7383197;19;20704;-76
2023/12/12 06:27:20;;;;;;;0.87;0.67;;;10.60;99.90;;;;;;7385567;19;20575;-75
2023/12/12 06:29:48;;;;;;;0.30;0.30;;;10.80;99.90;;;;;;7380790;19;20480;-75
2023/12/12 06:32:14;;;;;;;1.40;0.63;;;10.70;99.90;;;;;;7383811;19;20137;-75
2023/12/12 06:34:39;;;;;;;2.73;0.70;;;10.80;99.90;;;;;;7389786;19;20134;-75
2023/12/12 06:37:05;;;;;;;1.87;0.63;;;10.80;99.90;;;;;;7389653;19;20606;-75
2023/12/12 06:39:31;;;;;;;1.77;0.90;;;10.80;99.90;;;;;;7387918;19;20205;-75
2023/12/12 06:41:58;;;;;;;1.17;0.77;;;10.80;99.90;;;;;;7386870;19;20858;-75
2023/12/12 06:44:24;;;;;;;1.63;0.70;;;10.80;99.90;;;;;;7387993;19;20126;-74
2023/12/12 06:46:49;;;;;;;1.50;1.07;;;10.60;99.90;;;;;;7373976;19;20154;-73
2023/12/12 06:49:15;;;;;;;3.20;1.37;;;10.50;99.90;;;;;;7382842;19;20143;-75
2023/12/12 06:51:41;;;;;;;1.67;0.70;;;10.60;99.90;;;;;;7377887;19;20126;-75
2023/12/12 06:54:06;;;;;;;1.50;0.70;;;10.70;99.90;;;;;;7380331;19;20154;-73
2023/12/12 06:56:32;;;;;;;1.60;0.80;;;10.80;99.90;;;;;;7388022;19;20589;-73
2023/12/12 06:58:58;;;;;;;1.03;0.90;;;10.80;99.90;;;;;;7387939;19;20617;-74
2023/12/12 07:01:24;;;;;;;1.07;0.80;;;10.90;99.90;;;;;;7388756;19;20135;-75
2023/12/12 07:03:50;;;;;;;3.10;0.90;;;10.80;99.90;;;;;;7387090;19;20127;-74
2023/12/12 07:06:19;;;;;;;1.73;0.90;;;10.80;99.90;;;;;;7383441;19;20154;-73
2023/12/12 07:08:45;;;;;;;0.83;0.77;;;10.80;99.90;;;;;;7381648;19;20158;-76
2023/12/12 07:11:13;;;;;;;1.77;1.20;;;10.80;99.90;;;;;;7386177;19;20164;-75
2023/12/12 07:13:39;;;;;;;0.70;0.70;;;10.70;99.90;;;;;;7387432;19;20166;-75
2023/12/12 07:16:05;;;;;;;1.10;1.00;;;10.70;99.90;;;;;;7390732;19;20158;-76
2023/12/12 07:18:32;;;;;;;1.67;1.10;;;10.60;99.90;;;;;;7396657;19;20146;-76
2023/12/12 07:20:58;;;;;;;4.27;1.10;;;10.60;99.90;;;;;;7396195;19;20213;-74
2023/12/12 07:23:24;;;;;;;2.43;1.30;;;10.70;99.90;;;;;;7398716;19;20150;-75
2023/12/12 07:25:50;;;;;;;3.00;1.33;;;10.80;99.90;;;;;;7394145;19;20157;-75
2023/12/12 07:28:15;;;;;;;1.33;1.00;;;10.90;99.90;;;;;;7395512;19;20134;-75
2023/12/12 07:30:42;;;;;;;2.00;1.20;;;10.90;99.90;;;;;;7397658;19;20126;-75
2023/12/12 07:33:08;;;;;;;1.73;1.50;;;10.90;99.90;;;;;;7393567;19;20146;-75
2023/12/12 07:35:34;;;;;;;1.60;1.20;;;10.90;99.90;;;;;;7397512;19;20126;-75
2023/12/12 07:38:01;;;;;;;2.20;1.20;;;10.90;99.90;;;;;;7395030;19;20455;-75
2023/12/12 07:40:30;;;;;;;1.60;1.07;;;10.70;99.90;;;;;;7393042;19;20138;-74
2023/12/12 07:42:56;;;;;;;1.80;1.33;;;10.90;99.90;;;;;;7398302;19;20655;-74
2023/12/12 07:45:22;;;;;;;1.27;0.77;;;10.90;99.90;;;;;;7393212;19;20174;-74
2023/12/12 07:47:48;;;;;;;2.03;1.27;;;11.00;99.90;;;;;;7393411;19;20131;-75
2023/12/12 07:50:16;;;;;;;1.73;1.03;;;11.00;99.90;;;;;;7395361;19;20150;-75
2023/12/12 07:52:42;;;;;;;1.23;0.53;;;11.00;99.90;;;;;;7394881;19;20136;-75
2023/12/12 07:55:08;;;;;;;0.93;0.87;;;11.00;99.90;;;;;;7394129;19;20146;-74
2023/12/12 07:57:34;;;;;;;0.80;0.80;;;10.90;99.90;;;;;;7394597;19;20147;-74
2023/12/12 08:00:00;;;;;;;2.13;0.90;;;10.80;99.90;;;;;;7391995;19;20135;-75
2023/12/12 08:02:26;;;;;;;1.10;0.90;;;10.90;99.90;;;;;;7394865;19;20154;-75
2023/12/12 08:04:51;;;;;;;1.13;0.77;;;11.00;99.90;;;;;;7393985;19;20151;-75
2023/12/12 08:07:17;;;;;;;1.07;0.80;;;11.00;99.90;;;;;;7393184;19;20148;-74
2023/12/12 08:09:43;;;;;;;2.07;1.13;;;11.00;99.90;;;;;;7397237;19;20150;-76
2023/12/12 08:12:09;;;;;;;0.97;0.87;;;10.60;99.90;;;;;;7392752;19;20587;-75
2023/12/12 08:14:34;;;;;;;0.67;0.67;;;10.50;99.90;;;;;;7395035;19;20139;-75
2023/12/12 08:17:00;;;;;;;1.73;0.73;;;10.20;99.90;;;;;;7393136;19;20221;-74
2023/12/12 08:19:26;;;;;;;0.87;0.60;;;10.20;99.90;;;;;;7396413;19;20206;-75
2023/12/12 08:21:52;;;;;;;1.77;0.93;;;10.40;99.90;;;;;;7392961;19;20154;-75
2023/12/12 08:24:17;;;;;;;0.77;0.57;;;10.40;99.90;;;;;;7393445;19;20205;-75
2023/12/12 08:26:46;;;;;;;0.63;0.47;;;10.50;99.90;;;;;;7390289;19;20211;-76
2023/12/12 08:29:14;;;;;;;1.27;1.10;;;10.50;99.90;;;;;;7391392;19;20126;-76
2023/12/12 08:31:40;;;;;;;0.90;0.80;;;10.70;99.90;;;;;;7389565;19;20138;-75
2023/12/12 08:34:06;;;;;;;2.53;1.53;;;10.50;99.90;;;;;;7390465;19;20163;-75
2023/12/12 08:36:32;;;;;;;1.67;0.93;;;10.50;99.90;;;;;;7390477;19;20282;-74
2023/12/12 08:39:01;;;;;;;1.67;1.33;;;10.70;99.90;;;;;;7391259;19;20157;-76
2023/12/12 08:41:30;;;;;;;0.50;0.50;;;10.80;99.90;;;;;;7392569;19;20182;-75
2023/12/12 08:43:57;;;;;;;0.77;0.77;;;11.00;99.90;;;;;;7392711;19;20175;-76
2023/12/12 08:46:26;;;;;;;0.93;0.93;;;10.90;99.90;;;;;;7390734;19;20170;-75
2023/12/12 08:48:59;;;;;;;2.17;1.03;;;10.90;99.90;;;;;;7389185;19;20155;-77
2023/12/12 08:51:26;;;;;;;0.73;0.73;;;10.90;99.90;;;;;;7390790;19;20159;-77
2023/12/12 08:53:52;;;;;;;2.47;1.70;;;10.90;99.90;;;;;;7390920;19;20353;-77
2023/12/12 08:56:18;;;;;;;1.43;0.80;;;11.00;99.90;;;;;;7392504;19;20172;-75
2023/12/12 08:58:46;;;;;;;1.47;0.73;;;11.00;99.90;;;;;;7390062;19;20168;-76
2023/12/12 09:01:14;;;;;;;0.73;0.73;;;11.00;99.90;;;;;;7393002;19;20169;-75
2023/12/12 09:03:40;;;;;;;0.50;0.50;;;11.00;99.90;;;;;;7391466;19;20166;-76
2023/12/12 09:06:06;;;;;;;0.67;0.60;;;11.00;99.90;;;;;;7388896;19;20157;-76
2023/12/12 09:08:32;;;;;;;1.30;0.90;;;11.00;99.90;;;;;;7386975;19;20186;-76
2023/12/12 09:10:59;;;;;;;2.13;1.27;;;11.00;99.90;;;;;;7390627;19;20139;-77
2023/12/12 09:13:26;;;;;;;1.20;0.90;;;11.00;99.90;;;;;;7390900;19;20158;-77
2023/12/12 09:15:51;;;;;;;4.30;1.30;;;11.00;99.90;;;;;;7391034;19;20179;-76
2023/12/12 09:18:17;;;;;;;0.97;0.70;;;11.10;99.90;;;;;;7394874;19;20150;-79
2023/12/12 09:20:43;;;;;;;1.03;0.87;;;11.20;99.90;;;;;;7393725;19;20147;-78
2023/12/12 09:23:09;;;;;;;1.13;0.97;;;11.20;99.90;;;;;;7394042;19;20607;-78
2023/12/12 09:25:34;;;;;;;1.63;1.30;;;11.20;99.90;;;;;;7389845;19;20161;-78
2023/12/12 09:28:01;;;;;;;3.13;2.27;;;11.20;99.90;;;;;;7388454;19;20635;-79
2023/12/12 09:30:27;;;;;;;3.53;1.50;;;11.30;99.90;;;;;;7392403;19;20159;-80
2023/12/12 09:32:52;;;;;;;1.37;1.13;;;11.10;99.90;;;;;;7391003;19;20182;-79
2023/12/12 09:35:18;;;;;;;1.43;0.87;;;11.10;99.90;;;;;;7393589;19;20131;-79
2023/12/12 09:37:44;;;;;;;1.50;1.07;;;11.20;99.90;;;;;;7391019;19;20178;-78
2023/12/12 09:40:11;;;;;;;0.90;0.53;;;11.30;99.90;;;;;;7389973;19;20131;-77
2023/12/12 09:42:40;;;;;;;0.67;0.63;;;11.30;99.90;;;;;;7393373;19;20242;-78
2023/12/12 09:45:13;;;;;;;1.53;1.07;;;11.30;99.90;;;;;;7392932;19;20639;-78
2023/12/12 09:47:42;;;;;;;0.70;0.70;;;11.40;99.90;;;;;;7389524;19;20146;-76
2023/12/12 09:50:10;;;;;;;1.23;1.00;;;11.50;99.90;;;;;;7390630;19;20190;-78
2023/12/12 09:52:36;;;;;;;1.80;1.10;;;11.50;99.90;;;;;;7391426;19;20150;-79
2023/12/12 09:55:03;;;;;;;2.57;0.90;;;11.50;99.90;;;;;;7392130;19;20139;-79
2023/12/12 09:57:30;;;;;;;1.33;0.80;;;11.50;99.90;;;;;;7391962;19;20158;-76
2023/12/12 09:59:58;;;;;;;1.43;0.83;;;11.50;99.90;;;;;;7392645;19;20138;-79
2023/12/12 10:02:30;;;;;;;1.37;0.80;;;11.50;99.90;;;;;;7390266;19;20158;-77
2023/12/12 10:04:57;;;;;;;0.60;0.60;;;11.50;99.90;;;;;;7389066;19;20233;-80
2023/12/12 10:07:24;;;;;;;0.67;0.67;;;11.40;99.90;;;;;;7390325;19;20146;-76
2023/12/12 10:09:50;;;;;;;1.97;1.30;;;11.40;99.90;;;;;;7389159;19;20146;-79
2023/12/12 10:12:17;;;;;;;1.10;0.97;;;11.40;99.90;;;;;;7390134;19;20157;-79
2023/12/12 10:14:44;;;;;;;6.33;3.00;;;11.50;99.90;;;;;;7389902;19;20157;-77
2023/12/12 10:17:11;;;;;;;3.77;2.90;;;11.20;99.90;;;;;;7389080;19;20157;-78
2023/12/12 10:19:39;;;;;;;4.33;2.30;;;11.30;99.90;;;;;;7390555;19;20142;-79
2023/12/12 10:22:06;;;;;;;3.27;1.70;;;11.40;99.90;;;;;;7385788;19;20137;-77
2023/12/12 10:24:32;;;;;;;1.57;0.97;;;11.40;99.90;;;;;;7382726;19;20380;-77
2023/12/12 10:26:58;;;;;;;1.50;0.80;;;11.40;99.90;;;;;;7384989;19;21186;-77
2023/12/12 10:29:25;;;;;;;0.80;0.80;;;11.40;99.90;;;;;;7386027;19;20131;-79
2023/12/12 10:31:52;;;;;;;1.70;0.90;;;11.40;99.90;;;;;;7387924;19;20161;-77
2023/12/12 10:34:19;;;;;;;2.03;1.10;;;11.30;99.90;;;;;;7390248;19;20142;-78
2023/12/12 10:36:48;;;;;;;0.77;0.77;;;11.30;99.90;;;;;;7385843;19;20150;-78
2023/12/12 10:39:15;;;;;;;1.90;1.10;;;11.50;99.90;;;;;;7386260;19;20142;-77
2023/12/12 10:41:51;;;;;;;1.80;1.10;;;11.40;99.90;;;;;;7388508;19;20865;-78
2023/12/12 10:44:21;;;;;;;1.07;0.70;;;11.30;99.90;;;;;;7392046;19;20134;-77
2023/12/12 10:46:53;;;;;;;1.17;0.87;;;11.30;99.90;;;;;;7385900;19;20315;-77
2023/12/12 10:49:21;;;;;;;0.77;0.77;;;11.40;99.90;;;;;;7386996;19;20131;-77
2023/12/12 10:51:49;;;;;;;1.20;0.67;;;11.20;99.90;;;;;;7387611;19;20146;-77
2023/12/12 10:54:16;;;;;;;0.70;0.70;;;11.30;99.90;;;;;;7391049;19;20126;-77
2023/12/12 10:56:46;;;;;;;0.77;0.77;;;11.20;99.90;;;;;;7395553;19;20145;-78
2023/12/12 10:59:16;;;;;;;0.70;0.60;;;11.30;99.90;;;;;;7390433;19;20134;-77
2023/12/12 11:01:49;;;;;;;1.00;0.73;;;11.00;99.90;;;;;;7388346;19;20154;-78
2023/12/12 11:04:17;;;;;;;0.40;0.40;;;10.90;99.90;;;;;;7387986;19;20127;-78
2023/12/12 11:06:43;;;;;;;0.60;0.60;;;11.10;99.90;;;;;;7393811;19;20190;-79
2023/12/12 11:09:10;;;;;;;1.13;0.67;;;11.00;99.90;;;;;;7394189;19;20494;-78
2023/12/12 11:11:41;;;;;;;1.70;0.90;;;11.00;99.90;;;;;;7392233;19;20134;-82
2023/12/12 11:14:11;;;;;;;0.30;0.30;;;11.10;99.90;;;;;;7388894;19;20139;-78
2023/12/12 11:16:37;;;;;;;0.87;0.50;;;11.30;99.90;;;;;;7390577;19;20168;-79
2023/12/12 11:19:03;;;;;;;0.57;0.50;;;11.40;99.90;;;;;;7393264;19;20246;-77
2023/12/12 11:21:49;;;;;;;0.40;0.40;;;11.40;99.90;;;;;;7395246;19;20508;-78
2023/12/12 11:24:16;;;;;;;0.30;0.30;;;11.40;99.90;;;;;;7395605;19;20139;-78
2023/12/12 11:26:44;;;;;;;0.20;0.20;;;11.50;99.90;;;;;;7394792;19;20140;-78
2023/12/12 11:29:10;;;;;;;0.33;0.33;;;11.50;99.90;;;;;;7390189;19;20205;-79
2023/12/12 11:31:37;;;;;;;0.80;0.50;;;11.60;99.90;;;;;;7391751;19;20143;-78
2023/12/12 11:34:09;;;;;;;0.50;0.50;;;11.60;99.90;;;;;;7395872;19;20139;-79
2023/12/12 11:36:53;;;;;;;0.30;0.30;;;11.50;99.90;;;;;;7393828;19;20142;-78
2023/12/12 11:39:31;;;;;;;0.47;0.47;;;11.70;99.90;;;;;;7392096;19;20163;-79
2023/12/12 11:42:01;;;;;;;0.63;0.60;;;11.70;99.90;;;;;;7390857;19;20507;-78
2023/12/12 11:44:46;;;;;;;0.97;0.77;;;11.70;99.90;;;;;;7386480;19;20546;-78
2023/12/12 11:47:41;;;;;;;0.43;0.43;;;11.70;99.90;;;;;;7390868;19;20229;-78
2023/12/12 11:50:19;;;;;;;1.07;0.67;;;11.70;99.90;;;;;;7388268;19;20151;-77
2023/12/12 11:52:45;;;;;;;1.45;1.00;;;11.80;99.90;;;;;;7386923;19;20178;-77
2023/12/12 11:55:23;;;;;;;0.73;0.63;;;11.80;99.90;;;;;;7388719;19;20162;-76
2023/12/12 11:57:49;;;;;;;1.03;0.70;;;11.90;99.90;;;;;;7388699;19;20131;-79
2023/12/12 12:00:17;;;;;;;1.57;1.27;;;11.90;99.90;;;;;;7386379;19;20131;-77
2023/12/12 12:02:42;;;;;;;1.10;1.00;;;11.70;99.90;;;;;;7392173;19;20607;-77
2023/12/12 12:05:09;;;;;;;0.88;0.73;;;11.70;99.90;;;;;;7395012;19;20152;-77
2023/12/12 12:07:38;;;;;;;0.30;0.30;;;11.70;99.90;;;;;;7392003;19;20158;-78
2023/12/12 12:10:05;;;;;;;1.07;0.50;;;11.50;99.90;;;;;;7396265;19;20626;-78
2023/12/12 12:12:30;;;;;;;0.68;0.50;;;11.60;99.90;;;;;;7393914;19;20154;-78
2023/12/12 12:15:07;;;;;;;0.50;0.50;;;11.70;99.90;;;;;;7394461;19;20608;-78
2023/12/12 12:17:36;;;;;;;0.53;0.50;;;11.60;99.90;;;;;;7392722;19;20666;-78
2023/12/12 12:20:02;;;;;;;0.77;0.60;;;11.70;99.90;;;;;;7397412;19;20418;-78
2023/12/12 12:22:29;;;;;;;0.67;0.50;;;11.60;99.90;;;;;;7393189;19;20139;-78
2023/12/12 12:24:55;;;;;;;0.60;0.60;;;11.70;99.90;;;;;;7396535;19;20177;-79
2023/12/12 12:27:22;;;;;;;0.67;0.50;;;11.80;99.90;;;;;;7393150;19;20222;-79
2023/12/12 12:29:59;;;;;;;0.60;0.55;;;11.90;99.90;;;;;;7395000;19;20999;-79
2023/12/12 12:32:26;;;;;;;1.63;0.70;;;12.00;99.90;;;;;;7392857;19;20146;-78
2023/12/12 12:35:13;;;;;;;1.63;0.83;;;12.20;99.90;;;;;;7394647;19;20142;-79
2023/12/12 12:37:40;;;;;;;1.03;0.67;;;12.10;99.90;;;;;;7393564;19;20142;-79
2023/12/12 12:40:07;;;;;;;0.70;0.57;;;12.10;99.90;;;;;;7395534;19;20146;-79
2023/12/12 12:42:38;;;;;;;1.20;0.80;;;12.00;99.90;;;;;;7394247;19;20175;-78
2023/12/12 12:45:05;;;;;;;1.30;0.70;;;12.00;99.90;;;;;;7392898;19;20150;-78
2023/12/12 12:47:32;;;;;;;0.63;0.63;;;12.10;99.90;;;;;;7392035;19;20633;-82